createdAt,value
2019-05-17T00:00:44.032Z,8.20
2019-05-17T00:05:47.431Z,8.08
2019-05-17T00:10:50.898Z,8.06
2019-05-17T00:15:56.523Z,8.05
2019-05-17T00:20:59.444Z,8.05
2019-05-17T00:26:03.605Z,7.92
2019-05-17T00:31:07.002Z,7.82
2019-05-17T00:36:10.702Z,7.90
2019-05-17T00:41:14.103Z,8.02
2019-05-17T00:46:17.510Z,7.96
2019-05-17T00:51:20.906Z,7.66
2019-05-17T00:56:26.483Z,7.45
2019-05-17T01:01:29.447Z,7.58
2019-05-17T01:06:32.912Z,7.77
2019-05-17T01:11:36.683Z,7.88
2019-05-17T01:16:40.199Z,7.90
2019-05-17T01:21:43.598Z,7.90
2019-05-17T01:26:47.082Z,7.91
2019-05-17T01:31:50.468Z,7.93
2019-05-17T01:36:53.958Z,8.00
2019-05-17T01:41:57.654Z,8.12
2019-05-17T01:47:01.049Z,8.30
2019-05-17T01:52:04.456Z,8.37
2019-05-17T01:57:07.919Z,8.38
2019-05-17T02:02:12.965Z,8.42
2019-05-17T02:07:17.303Z,8.44
2019-05-17T02:12:20.826Z,8.53
2019-05-17T02:17:26.465Z,8.52
2019-05-17T02:22:29.351Z,8.44
2019-05-17T02:27:39.867Z,8.40
2019-05-17T02:32:42.749Z,8.41
2019-05-17T02:37:45.369Z,8.39
2019-05-17T02:42:48.771Z,8.31
2019-05-17T02:47:53.693Z,8.26
2019-05-17T02:52:57.249Z,8.42
2019-05-17T02:58:03.131Z,8.35
2019-05-17T03:03:05.787Z,8.46
2019-05-17T03:08:12.141Z,8.54
2019-05-17T03:13:17.912Z,8.52
2019-05-17T03:18:22.623Z,8.58
2019-05-17T03:23:24.669Z,8.69
2019-05-17T03:28:28.342Z,8.70
2019-05-17T03:33:36.075Z,8.68
2019-05-17T03:38:38.900Z,8.56
2019-05-17T03:43:44.198Z,8.45
2019-05-17T03:48:47.423Z,8.48
2019-05-17T03:53:53.121Z,8.55
2019-05-17T03:58:55.972Z,8.56
2019-05-17T04:04:02.561Z,8.49
2019-05-17T04:09:07.229Z,8.42
2019-05-17T04:14:13.668Z,8.30
2019-05-17T04:19:15.980Z,8.34
2019-05-17T04:24:19.383Z,8.44
2019-05-17T04:29:22.938Z,8.50
2019-05-17T04:34:26.260Z,8.41
2019-05-17T04:39:32.509Z,8.41
2019-05-17T04:44:34.788Z,8.41
2019-05-17T04:49:38.175Z,8.48
2019-05-17T04:54:42.479Z,8.49
2019-05-17T04:59:46.059Z,8.51
2019-05-17T05:04:49.735Z,8.69
2019-05-17T05:09:53.307Z,8.83
2019-05-17T05:14:56.708Z,8.93
2019-05-17T05:20:02.803Z,8.92
2019-05-17T05:25:06.436Z,9.05
2019-05-17T05:30:12.096Z,9.19
2019-05-17T05:35:15.682Z,9.17
2019-05-17T05:40:21.292Z,9.19
2019-05-17T05:45:24.270Z,9.09
2019-05-17T05:50:27.933Z,9.27
2019-05-17T05:55:32.144Z,9.45
2019-05-17T06:00:35.711Z,9.65
2019-05-17T06:05:39.144Z,9.71
2019-05-17T06:10:43.034Z,9.79
2019-05-17T06:15:46.573Z,9.94
2019-05-17T06:20:52.289Z,10.12
2019-05-17T06:25:55.149Z,10.29
2019-05-17T06:30:58.550Z,10.49
2019-05-17T06:36:02.780Z,10.68
2019-05-17T06:41:06.687Z,10.88
2019-05-17T06:46:12.228Z,11.07
2019-05-17T06:51:15.292Z,11.30
2019-05-17T06:56:18.690Z,11.41
2019-05-17T07:01:22.095Z,11.57
2019-05-17T07:06:29.511Z,11.74
2019-05-17T07:11:32.331Z,11.94
2019-05-17T07:16:35.737Z,11.96
2019-05-17T07:21:40.430Z,12.08
2019-05-17T07:26:44.024Z,12.45
2019-05-17T07:31:49.663Z,12.53
2019-05-17T07:36:53.078Z,12.65
2019-05-17T07:41:56.496Z,12.97
2019-05-17T07:47:00.209Z,13.25
2019-05-17T07:52:03.632Z,13.44
2019-05-17T07:57:07.036Z,13.54
2019-05-17T08:02:10.724Z,13.66
2019-05-17T08:07:14.126Z,13.83
2019-05-17T08:12:19.863Z,14.12
2019-05-17T08:17:22.727Z,14.45
2019-05-17T08:22:26.161Z,14.53
2019-05-17T08:27:29.910Z,14.62
2019-05-17T08:32:33.458Z,14.74
2019-05-17T08:37:36.874Z,15.08
2019-05-17T08:42:40.783Z,15.35
2019-05-17T08:47:44.458Z,15.64
2019-05-17T08:52:49.463Z,15.79
2019-05-17T08:57:53.047Z,16.03
2019-05-17T09:02:56.449Z,16.22
2019-05-17T09:08:00.145Z,16.38
2019-05-17T09:13:03.513Z,16.64
2019-05-17T09:18:06.989Z,17.06
2019-05-17T09:23:10.380Z,17.23
2019-05-17T09:28:14.088Z,17.49
2019-05-17T09:33:19.249Z,17.58
2019-05-17T09:38:22.689Z,17.39
2019-05-17T09:43:26.084Z,17.28
2019-05-17T09:48:30.735Z,17.65
2019-05-17T09:53:34.288Z,18.04
2019-05-17T09:58:39.667Z,18.32
2019-05-17T10:03:43.247Z,18.32
2019-05-17T10:08:46.664Z,18.44
2019-05-17T10:13:50.131Z,18.37
2019-05-17T10:18:53.538Z,18.67
2019-05-17T10:23:57.006Z,18.84
2019-05-17T10:29:00.421Z,19.12
2019-05-17T10:34:03.986Z,19.40
2019-05-17T10:39:09.942Z,19.61
2019-05-17T10:44:13.496Z,19.68
2019-05-17T10:49:16.960Z,19.73
2019-05-17T10:54:20.739Z,20.02
2019-05-17T10:59:24.226Z,19.92
2019-05-17T11:04:27.617Z,20.12
2019-05-17T11:09:31.469Z,20.03
2019-05-17T11:14:48.949Z,20.23
2019-05-17T11:19:40.104Z,20.35
2019-05-17T11:24:43.600Z,19.95
2019-05-17T11:29:47.021Z,20.24
2019-05-17T11:34:50.416Z,20.49
2019-05-17T11:39:53.814Z,20.69
2019-05-17T11:44:57.260Z,20.64
2019-05-17T11:50:00.649Z,20.48
2019-05-17T11:55:05.984Z,20.51
2019-05-17T12:00:10.319Z,20.70
2019-05-17T12:05:14.458Z,21.11
2019-05-17T12:10:18.157Z,21.57
2019-05-17T12:15:21.487Z,21.78
2019-05-17T12:20:25.323Z,21.65
2019-05-17T12:25:29.043Z,22.31
2019-05-17T12:30:32.609Z,22.75
2019-05-17T12:35:36.115Z,22.99
2019-05-17T12:40:39.516Z,22.99
2019-05-17T12:45:42.937Z,23.31
2019-05-17T12:50:46.356Z,23.38
2019-05-17T12:55:49.767Z,23.35
2019-05-17T13:00:53.191Z,23.18
2019-05-17T13:05:56.585Z,23.04
2019-05-17T13:10:59.986Z,23.14
2019-05-17T13:16:16.813Z,23.49
2019-05-17T13:21:08.501Z,23.49
2019-05-17T13:26:11.917Z,23.08
2019-05-17T13:31:15.582Z,23.44
2019-05-17T13:36:18.980Z,23.61
2019-05-17T13:41:22.447Z,23.77
2019-05-17T13:46:33.074Z,23.90
2019-05-17T13:51:31.250Z,23.96
2019-05-17T13:56:35.043Z,23.65
2019-05-17T14:01:38.522Z,23.91
2019-05-17T14:06:41.900Z,23.84
2019-05-17T14:11:45.299Z,24.02
2019-05-17T14:16:48.689Z,24.56
2019-05-17T14:21:52.440Z,24.72
2019-05-17T14:26:55.932Z,24.72
2019-05-17T14:31:59.327Z,24.63
2019-05-17T14:37:02.742Z,24.66
2019-05-17T14:42:06.115Z,24.63
2019-05-17T14:47:09.541Z,24.71
2019-05-17T14:52:13.174Z,24.77
2019-05-17T14:57:16.571Z,24.49
2019-05-17T15:02:19.963Z,24.33
2019-05-17T15:07:23.604Z,24.63
2019-05-17T15:12:28.757Z,24.46
2019-05-17T15:17:35.001Z,24.58
2019-05-17T15:22:37.231Z,24.13
2019-05-17T15:27:40.869Z,24.16
2019-05-17T15:32:44.348Z,24.38
2019-05-17T15:37:47.721Z,24.09
2019-05-17T15:42:51.119Z,23.88
2019-05-17T15:47:54.750Z,24.10
2019-05-17T15:52:58.145Z,23.82
2019-05-17T15:58:01.559Z,23.53
2019-05-17T16:03:04.949Z,23.68
2019-05-17T16:08:08.577Z,23.38
2019-05-17T16:13:11.986Z,23.21
2019-05-17T16:18:15.383Z,23.21
2019-05-17T16:23:18.772Z,23.32
2019-05-17T16:28:22.162Z,23.19
2019-05-17T16:33:25.796Z,23.10
2019-05-17T16:38:29.214Z,22.97
2019-05-17T16:43:32.844Z,22.67
2019-05-17T16:48:36.237Z,22.58
2019-05-17T16:53:39.634Z,22.53
2019-05-17T16:58:43.031Z,22.28
2019-05-17T17:03:46.680Z,22.17
2019-05-17T17:08:50.088Z,22.01
2019-05-17T17:13:53.491Z,21.95
2019-05-17T17:18:57.146Z,21.68
2019-05-17T17:24:00.793Z,21.64
2019-05-17T17:29:04.704Z,21.49
2019-05-17T17:34:08.339Z,21.32
2019-05-17T17:39:11.749Z,21.18
2019-05-17T17:44:15.400Z,21.13
2019-05-17T17:49:18.802Z,21.04
2019-05-17T17:54:22.194Z,20.99
2019-05-17T17:59:25.591Z,20.98
2019-05-17T18:04:29.085Z,20.98
2019-05-17T18:09:32.502Z,20.96
2019-05-17T18:14:35.914Z,21.05
2019-05-17T18:19:39.325Z,20.88
2019-05-17T18:24:42.720Z,20.70
2019-05-17T18:29:46.171Z,20.60
2019-05-17T18:34:49.581Z,20.39
2019-05-17T18:39:52.977Z,19.99
2019-05-17T18:44:56.403Z,19.47
2019-05-17T18:49:59.798Z,18.84
2019-05-17T18:55:04.353Z,18.38
2019-05-17T19:00:08.897Z,18.24
2019-05-17T19:05:12.966Z,17.91
2019-05-17T19:10:16.577Z,17.60
2019-05-17T19:15:20.109Z,17.47
2019-05-17T19:20:23.576Z,17.25
2019-05-17T19:25:26.999Z,16.87
2019-05-17T19:30:30.460Z,16.65
2019-05-17T19:35:34.271Z,16.37
2019-05-17T19:40:37.627Z,16.38
2019-05-17T19:45:41.017Z,16.30
2019-05-17T19:50:44.416Z,16.17
2019-05-17T19:55:47.846Z,15.99
2019-05-17T20:00:51.439Z,15.81
2019-05-17T20:05:54.829Z,15.66
2019-05-17T20:10:58.467Z,15.55
2019-05-17T20:16:01.859Z,15.53
2019-05-17T20:21:05.270Z,15.46
2019-05-17T20:26:08.666Z,15.39
2019-05-17T20:31:12.298Z,15.38
2019-05-17T20:36:15.691Z,15.38
2019-05-17T20:41:19.096Z,15.39
2019-05-17T20:46:22.725Z,15.39
2019-05-17T20:51:26.189Z,15.38
2019-05-17T20:56:32.869Z,15.36
2019-05-17T21:01:34.704Z,15.30
2019-05-17T21:06:38.122Z,15.01
2019-05-17T21:11:41.514Z,15.01
2019-05-17T21:16:44.908Z,14.99
2019-05-17T21:21:48.381Z,15.00
2019-05-17T21:26:51.785Z,15.00
2019-05-17T21:31:55.210Z,14.86
2019-05-17T21:36:58.597Z,14.86
2019-05-17T21:42:01.998Z,14.79
2019-05-17T21:47:05.721Z,14.79
2019-05-17T21:52:09.119Z,14.80
2019-05-17T21:57:12.585Z,14.83
2019-05-17T22:02:15.985Z,14.72
2019-05-17T22:07:19.381Z,14.72
2019-05-17T22:12:22.777Z,14.81
2019-05-17T22:17:26.168Z,14.84
2019-05-17T22:22:29.556Z,14.72
2019-05-17T22:27:32.964Z,14.72
2019-05-17T22:32:36.656Z,14.65
2019-05-17T22:37:40.045Z,14.57
2019-05-17T22:42:43.520Z,14.57
2019-05-17T22:47:46.910Z,14.46
2019-05-17T22:52:50.302Z,14.46
2019-05-17T22:57:53.703Z,14.17
2019-05-17T23:02:57.169Z,13.93
2019-05-17T23:08:00.570Z,13.87
2019-05-17T23:13:03.959Z,13.87
2019-05-17T23:18:07.362Z,13.68
2019-05-17T23:23:10.759Z,13.47
2019-05-17T23:28:14.414Z,13.29
2019-05-17T23:33:17.827Z,13.22
2019-05-17T23:38:21.275Z,13.08
2019-05-17T23:43:24.671Z,13.09
2019-05-17T23:48:28.072Z,13.15
2019-05-17T23:53:31.464Z,12.89
2019-05-17T23:58:34.935Z,12.69
